Time;durP1;ratioP1;P1;durP2;ratioP2;P2;SDS_P1;SDS_P2;PMS_P1;PMS_P2;Temp;Humidity;BMP_temperature;BMP_pressure;BME280_temperature;BME280_humidity;BME280_pressure;Samples;Min_cycle;Max_cycle;Signal;HPM_P1;HPM_P2
2021/03/24 00:02:58;;;;;;;30.85;12.52;;;;;;;;;;8260172;28;20063;-71
2021/03/24 00:07:01;;;;;;;25.80;11.82;;;;;;;;;;8261765;28;20057;-71
2021/03/24 00:11:12;;;;;;;23.23;11.60;;;;;;;;;;8261591;28;20577;-70
2021/03/24 00:15:19;;;;;;;;;;;;;;;;;;8261329;28;20464;-71
2021/03/24 00:19:24;;;;;;;23.55;11.38;;;;;;;;;;8259009;28;19943;-70
2021/03/24 00:23:40;;;;;;;27.45;10.88;;;;;;;;;;8261071;28;20049;-70
2021/03/24 00:27:47;;;;;;;25.25;12.30;;;;;;;;;;8259013;28;20365;-71
2021/03/24 00:31:51;;;;;;;26.30;11.90;;;;;;;;;;8258237;28;20491;-72
2021/03/24 00:35:57;;;;;;;24.55;11.07;;;;;;;;;;8260203;28;20377;-70
2021/03/24 00:40:00;;;;;;;24.95;11.90;;;;;;;;;;8259715;28;20049;-70
2021/03/24 00:44:05;;;;;;;24.63;11.98;;;;;;;;;;8257972;28;20137;-71
2021/03/24 00:48:26;;;;;;;26.38;11.75;;;;;;;;;;8260435;28;20356;-70
2021/03/24 00:52:35;;;;;;;26.30;11.13;;;;;;;;;;8243766;28;20460;-71
2021/03/24 00:56:41;;;;;;;28.95;11.13;;;;;;;;;;8261244;28;20483;-71
2021/03/24 01:00:47;;;;;;;27.90;11.68;;;;;;;;;;8257488;28;20484;-71
2021/03/24 01:04:52;;;;;;;30.23;12.07;;;;;;;;;;8248078;28;20486;-70
2021/03/24 01:09:00;;;;;;;24.63;12.38;;;;;;;;;;8259653;28;20375;-70
2021/03/24 01:13:04;;;;;;;26.55;11.85;;;;;;;;;;8259373;28;20441;-71
2021/03/24 01:17:12;;;;;;;28.58;11.85;;;;;;;;;;8257177;28;20052;-71
2021/03/24 01:21:17;;;;;;;21.63;11.32;;;;;;;;;;8259345;28;20367;-71
2021/03/24 01:25:29;;;;;;;27.88;12.30;;;;;;;;;;8258695;28;20089;-71
2021/03/24 01:29:32;;;;;;;29.00;12.48;;;;;;;;;;8259538;28;20379;-71
2021/03/24 01:33:36;;;;;;;24.83;11.95;;;;;;;;;;8259409;28;20419;-71
2021/03/24 01:37:43;;;;;;;24.23;12.98;;;;;;;;;;8241667;28;20478;-70
2021/03/24 01:41:47;;;;;;;28.73;12.60;;;;;;;;;;8259815;28;20471;-71
2021/03/24 01:46:16;;;;;;;23.35;12.35;;;;;;;;;;8257527;28;20468;-71
2021/03/24 01:50:32;;;;;;;26.73;13.10;;;;;;;;;;8258902;28;20487;-70
2021/03/24 01:54:51;;;;;;;25.45;11.77;;;;;;;;;;8256872;28;20488;-71
2021/03/24 01:58:57;;;;;;;27.95;12.48;;;;;;;;;;8256895;28;20071;-71
2021/03/24 02:03:02;;;;;;;28.77;12.88;;;;;;;;;;8257711;28;20076;-71
2021/03/24 02:07:30;;;;;;;26.48;12.10;;;;;;;;;;8257841;28;20041;-71
2021/03/24 02:11:54;;;;;;;26.65;12.23;;;;;;;;;;8258350;28;20349;-70
2021/03/24 02:16:25;;;;;;;21.27;11.13;;;;;;;;;;8272779;28;20462;-71
2021/03/24 02:20:39;;;;;;;28.23;12.32;;;;;;;;;;8255961;28;20352;-71
2021/03/24 02:24:57;;;;;;;28.30;11.23;;;;;;;;;;8256285;28;20375;-73
2021/03/24 02:29:05;;;;;;;22.17;11.68;;;;;;;;;;8256815;28;20452;-71
2021/03/24 02:33:23;;;;;;;22.98;11.80;;;;;;;;;;8256900;28;20333;-71
2021/03/24 02:37:33;;;;;;;23.88;11.40;;;;;;;;;;8259105;28;20456;-73
2021/03/24 02:41:38;;;;;;;;;;;;;;;;;;8256392;28;20467;-71
2021/03/24 02:45:45;;;;;;;27.25;12.88;;;;;;;;;;8256288;28;20383;-71
2021/03/24 02:49:50;;;;;;;24.50;12.02;;;;;;;;;;8257420;28;20647;-70
2021/03/24 02:53:55;;;;;;;29.00;12.90;;;;;;;;;;8256348;28;20068;-70
2021/03/24 02:57:59;;;;;;;24.98;11.93;;;;;;;;;;8261908;28;20079;-71
2021/03/24 03:02:06;;;;;;;24.60;14.13;;;;;;;;;;8263766;28;20600;-71
2021/03/24 03:06:14;;;;;;;29.95;12.88;;;;;;;;;;8262920;28;20379;-71
2021/03/24 03:10:45;;;;;;;29.63;13.67;;;;;;;;;;8262042;28;20056;-71
2021/03/24 03:15:03;;;;;;;25.33;11.40;;;;;;;;;;8262705;28;20493;-71
2021/03/24 03:19:24;;;;;;;35.28;13.02;;;;;;;;;;8263185;28;20351;-71
2021/03/24 03:23:31;;;;;;;30.80;13.27;;;;;;;;;;8263569;28;20371;-71
2021/03/24 03:27:37;;;;;;;28.65;12.50;;;;;;;;;;8261385;28;20464;-70
2021/03/24 03:31:45;;;;;;;23.48;11.50;;;;;;;;;;8261613;28;20470;-71
2021/03/24 03:35:51;;;;;;;25.13;11.40;;;;;;;;;;8261622;28;20435;-71
2021/03/24 03:39:57;;;;;;;21.90;11.00;;;;;;;;;;8260799;28;20386;-72
2021/03/24 03:44:04;;;;;;;24.58;11.80;;;;;;;;;;8260424;28;20463;-71
2021/03/24 03:48:13;;;;;;;21.65;11.95;;;;;;;;;;8261471;28;20075;-71
2021/03/24 03:52:48;;;;;;;29.52;12.73;;;;;;;;;;8259861;28;20359;-71
2021/03/24 03:57:25;;;;;;;23.95;11.68;;;;;;;;;;8261089;28;20100;-71
2021/03/24 04:01:36;;;;;;;22.02;11.63;;;;;;;;;;8261719;28;20052;-70
2021/03/24 04:06:10;;;;;;;23.90;11.63;;;;;;;;;;8258948;28;20471;-71
2021/03/24 04:10:16;;;;;;;24.85;11.00;;;;;;;;;;8259598;28;20349;-70
2021/03/24 04:14:27;;;;;;;26.63;11.55;;;;;;;;;;8259238;28;20490;-73
2021/03/24 04:18:54;;;;;;;21.70;11.60;;;;;;;;;;8262077;28;20448;-71
2021/03/24 04:23:02;;;;;;;25.17;11.55;;;;;;;;;;8258404;28;20114;-71
2021/03/24 04:27:09;;;;;;;23.20;10.57;;;;;;;;;;8259464;28;20361;-72
2021/03/24 04:31:16;;;;;;;20.63;10.97;;;;;;;;;;8259893;28;20379;-71
2021/03/24 04:35:22;;;;;;;24.00;10.95;;;;;;;;;;8259434;28;20799;-72
2021/03/24 04:39:38;;;;;;;22.63;11.15;;;;;;;;;;8259987;28;20068;-71
2021/03/24 04:43:47;;;;;;;24.05;11.68;;;;;;;;;;8258223;28;20376;-70
2021/03/24 04:47:54;;;;;;;29.52;12.50;;;;;;;;;;8258915;28;20399;-71
2021/03/24 04:52:00;;;;;;;27.50;11.23;;;;;;;;;;8259022;28;20352;-71
2021/03/24 04:56:06;;;;;;;27.23;14.63;;;;;;;;;;8259270;28;20383;-70
2021/03/24 05:00:41;;;;;;;27.05;14.25;;;;;;;;;;8260378;28;20076;-70
2021/03/24 05:04:53;;;;;;;25.77;12.48;;;;;;;;;;8261426;28;20376;-70
2021/03/24 05:09:00;;;;;;;45.53;18.42;;;;;;;;;;8257929;28;20041;-73
2021/03/24 05:13:34;;;;;;;51.40;20.15;;;;;;;;;;8258951;28;20468;-71
2021/03/24 05:17:42;;;;;;;47.78;20.92;;;;;;;;;;8257251;28;20515;-70
2021/03/24 05:21:55;;;;;;;41.17;18.48;;;;;;;;;;8257995;28;20368;-71
2021/03/24 05:26:21;;;;;;;31.80;15.98;;;;;;;;;;8258795;28;20440;-70
2021/03/24 05:30:35;;;;;;;29.90;14.20;;;;;;;;;;8257950;28;20383;-71
2021/03/24 05:34:41;;;;;;;24.15;12.13;;;;;;;;;;8258905;28;20048;-70
2021/03/24 05:38:53;;;;;;;24.65;13.63;;;;;;;;;;8257445;28;20349;-72
2021/03/24 05:43:41;;;;;;;26.52;14.60;;;;;;;;;;8256722;28;20475;-71
2021/03/24 05:48:14;;;;;;;33.10;15.88;;;;;;;;;;8256365;28;20490;-71
2021/03/24 05:52:58;;;;;;;23.52;13.65;;;;;;;;;;8257871;28;20464;-71
2021/03/24 05:57:48;;;;;;;31.63;17.45;;;;;;;;;;8256596;28;20352;-71
2021/03/24 06:02:02;;;;;;;78.50;27.35;;;;;;;;;;8257575;28;20071;-70
2021/03/24 06:06:16;;;;;;;45.83;21.15;;;;;;;;;;8256858;28;20364;-71
2021/03/24 06:11:12;;;;;;;46.10;20.92;;;;;;;;;;8257352;28;20456;-72
2021/03/24 06:15:37;;;;;;;37.20;17.67;;;;;;;;;;8255872;28;20368;-71
2021/03/24 06:19:42;;;;;;;32.13;14.98;;;;;;;;;;8257017;28;20499;-70
2021/03/24 06:24:26;;;;;;;39.00;18.73;;;;;;;;;;8257682;28;20371;-71
2021/03/24 06:29:11;;;;;;;27.98;13.48;;;;;;;;;;8256034;28;20379;-71
2021/03/24 06:33:36;;;;;;;31.42;16.27;;;;;;;;;;8265081;28;20440;-71
2021/03/24 06:38:18;;;;;;;38.35;20.30;;;;;;;;;;8262491;28;20490;-71
2021/03/24 06:42:50;;;;;;;26.73;14.13;;;;;;;;;;8266154;28;20353;-71
2021/03/24 06:47:25;;;;;;;25.95;14.85;;;;;;;;;;8263397;28;20483;-71
2021/03/24 06:52:08;;;;;;;23.65;13.32;;;;;;;;;;8264776;28;20470;-72
2021/03/24 06:57:09;;;;;;;29.15;13.57;;;;;;;;;;8264161;28;20386;-70
2021/03/24 07:01:42;;;;;;;23.15;12.02;;;;;;;;;;8264063;28;20356;-71
2021/03/24 07:06:05;;;;;;;29.80;15.00;;;;;;;;;;8261688;28;20506;-71
2021/03/24 07:10:39;;;;;;;28.90;13.30;;;;;;;;;;8262992;28;20481;-72
2021/03/24 07:15:05;;;;;;;31.42;15.63;;;;;;;;;;8263615;28;20108;-71
2021/03/24 07:19:48;;;;;;;22.55;11.85;;;;;;;;;;8262780;28;20464;-71
2021/03/24 07:24:22;;;;;;;27.30;14.82;;;;;;;;;;8262584;28;20506;-71
2021/03/24 07:29:05;;;;;;;26.55;12.57;;;;;;;;;;8261358;28;20486;-71
2021/03/24 07:33:34;;;;;;;21.38;9.75;;;;;;;;;;8262452;28;20075;-71
2021/03/24 07:38:01;;;;;;;28.35;11.18;;;;;;;;;;8265239;28;20356;-71
2021/03/24 07:42:34;;;;;;;20.17;10.45;;;;;;;;;;8262205;28;20412;-71
2021/03/24 07:47:06;;;;;;;22.45;10.82;;;;;;;;;;8261611;28;20383;-71
2021/03/24 07:52:19;;;;;;;18.45;9.95;;;;;;;;;;8262929;28;20363;-71
2021/03/24 07:56:35;;;;;;;26.55;10.77;;;;;;;;;;8261828;28;20053;-70
2021/03/24 08:01:16;;;;;;;22.13;10.75;;;;;;;;;;8264267;28;20061;-71
2021/03/24 08:05:54;;;;;;;20.58;10.27;;;;;;;;;;8261928;28;20487;-68
2021/03/24 08:10:10;;;;;;;17.83;9.23;;;;;;;;;;8261579;28;20483;-69
2021/03/24 08:14:51;;;;;;;29.20;10.05;;;;;;;;;;8261514;28;20967;-69
2021/03/24 08:19:27;;;;;;;23.13;10.25;;;;;;;;;;8261639;28;20422;-69
2021/03/24 08:24:38;;;;;;;20.48;10.57;;;;;;;;;;8260283;28;20411;-69
2021/03/24 08:29:04;;;;;;;24.33;12.40;;;;;;;;;;8259282;28;20459;-69
2021/03/24 08:33:26;;;;;;;22.17;13.38;;;;;;;;;;8262031;28;20367;-69
2021/03/24 08:38:07;;;;;;;22.10;10.05;;;;;;;;;;8261116;28;20049;-69
2021/03/24 08:42:31;;;;;;;17.90;9.57;;;;;;;;;;8259137;28;20484;-70
2021/03/24 08:46:57;;;;;;;14.23;8.20;;;;;;;;;;8259757;28;20411;-69
2021/03/24 08:51:39;;;;;;;22.42;11.00;;;;;;;;;;8259068;28;20460;-69
2021/03/24 08:55:56;;;;;;;11.13;6.97;;;;;;;;;;8258736;28;20456;-69
2021/03/24 09:00:45;;;;;;;20.05;8.65;;;;;;;;;;8276831;28;20379;-70
2021/03/24 09:05:13;;;;;;;13.45;8.10;;;;;;;;;;8260001;28;20452;-69
2021/03/24 09:09:42;;;;;;;13.88;7.15;;;;;;;;;;8260206;28;20452;-69
2021/03/24 09:14:13;;;;;;;22.65;10.15;;;;;;;;;;8261400;28;20368;-69
2021/03/24 09:18:24;;;;;;;11.85;6.80;;;;;;;;;;8258623;28;20057;-69
2021/03/24 09:22:43;;;;;;;12.55;7.38;;;;;;;;;;8259532;28;20375;-69
2021/03/24 09:26:59;;;;;;;11.80;6.65;;;;;;;;;;8259472;28;20460;-69
2021/03/24 09:31:40;;;;;;;19.20;8.15;;;;;;;;;;8274726;28;20478;-69
2021/03/24 09:36:19;;;;;;;17.35;8.93;;;;;;;;;;8257131;28;20490;-70
2021/03/24 09:40:40;;;;;;;12.80;7.78;;;;;;;;;;8260628;28;20468;-69
2021/03/24 09:45:05;;;;;;;18.17;9.23;;;;;;;;;;8257924;28;20352;-70
2021/03/24 09:49:32;;;;;;;14.18;7.70;;;;;;;;;;8253012;28;20361;-69
2021/03/24 09:53:42;;;;;;;25.02;9.00;;;;;;;;;;8259846;28;20464;-70
2021/03/24 09:58:24;;;;;;;13.30;8.50;;;;;;;;;;8257227;28;20368;-70
2021/03/24 10:02:41;;;;;;;17.30;8.30;;;;;;;;;;8258678;28;20456;-69
2021/03/24 10:07:05;;;;;;;14.98;8.20;;;;;;;;;;8255586;28;20061;-69
2021/03/24 10:11:21;;;;;;;11.70;6.55;;;;;;;;;;8256919;28;20040;-70
2021/03/24 10:15:35;;;;;;;20.50;9.65;;;;;;;;;;8256742;28;20472;-70
2021/03/24 10:19:55;;;;;;;31.83;14.52;;;;;;;;;;8256342;28;20346;-69
2021/03/24 10:24:10;;;;;;;19.80;9.18;;;;;;;;;;8257480;28;20478;-70
2021/03/24 10:28:24;;;;;;;14.13;7.68;;;;;;;;;;8256367;28;20452;-69
2021/03/24 10:32:39;;;;;;;13.45;7.03;;;;;;;;;;8256064;28;20072;-69
2021/03/24 10:37:37;;;;;;;11.90;7.40;;;;;;;;;;8257028;28;20479;-69
2021/03/24 10:41:48;;;;;;;19.58;10.77;;;;;;;;;;8255438;28;20482;-70
2021/03/24 10:46:23;;;;;;;17.13;8.25;;;;;;;;;;8254252;28;20053;-69
2021/03/24 10:50:42;;;;;;;24.23;11.70;;;;;;;;;;8257597;28;20456;-69
2021/03/24 10:55:05;;;;;;;20.45;10.55;;;;;;;;;;8256386;28;20075;-70
2021/03/24 10:59:21;;;;;;;19.23;10.55;;;;;;;;;;8254771;28;20390;-72
2021/03/24 11:03:49;;;;;;;23.42;11.73;;;;;;;;;;8256318;28;20061;-70
2021/03/24 11:08:04;;;;;;;24.98;11.73;;;;;;;;;;8275280;28;20466;-69
2021/03/24 11:12:21;;;;;;;20.17;9.80;;;;;;;;;;8242405;28;20056;-70
2021/03/24 11:16:40;;;;;;;27.67;10.52;;;;;;;;;;8260288;28;20418;-69
2021/03/24 11:20:51;;;;;;;;;;;;;;;;;;8266816;28;20367;-71
2021/03/24 11:25:15;;;;;;;29.67;11.15;;;;;;;;;;8264697;28;20354;-69
2021/03/24 11:29:23;;;;;;;18.60;10.13;;;;;;;;;;8262744;28;20498;-70
2021/03/24 11:33:50;;;;;;;18.55;9.90;;;;;;;;;;8262182;28;20478;-69
2021/03/24 11:38:34;;;;;;;24.38;11.70;;;;;;;;;;8261984;28;20483;-69
2021/03/24 11:42:38;;;;;;;17.33;9.48;;;;;;;;;;8263141;28;20053;-69
2021/03/24 11:46:44;;;;;;;19.00;10.23;;;;;;;;;;8275876;28;20497;-69
2021/03/24 11:51:15;;;;;;;21.48;10.73;;;;;;;;;;8261087;28;20368;-69
2021/03/24 11:56:13;;;;;;;20.73;10.95;;;;;;;;;;8259892;28;20070;-69
2021/03/24 12:00:32;;;;;;;20.27;10.53;;;;;;;;;;8260670;28;20391;-69
2021/03/24 12:05:00;;;;;;;20.70;9.80;;;;;;;;;;8261076;28;20053;-69
2021/03/24 12:09:30;;;;;;;23.88;10.55;;;;;;;;;;8259289;28;20498;-69
2021/03/24 12:13:37;;;;;;;16.85;11.60;;;;;;;;;;8257714;28;20371;-69
2021/03/24 12:17:41;;;;;;;19.65;10.93;;;;;;;;;;8257510;28;20471;-69
2021/03/24 12:21:45;;;;;;;16.85;10.02;;;;;;;;;;8258617;28;20403;-69
2021/03/24 12:25:53;;;;;;;20.48;11.15;;;;;;;;;;8242997;28;20457;-70
2021/03/24 12:30:08;;;;;;;17.98;10.75;;;;;;;;;;8258342;28;20444;-71
2021/03/24 12:34:16;;;;;;;20.98;11.75;;;;;;;;;;8262474;28;20452;-70
2021/03/24 12:38:22;;;;;;;22.77;13.02;;;;;;;;;;8258536;28;20478;-69
2021/03/24 12:42:30;;;;;;;25.42;12.07;;;;;;;;;;8259994;28;20368;-69
2021/03/24 12:46:51;;;;;;;18.52;10.27;;;;;;;;;;8259982;28;20380;-69
2021/03/24 12:51:13;;;;;;;16.25;9.85;;;;;;;;;;8260159;28;20056;-70
2021/03/24 12:55:19;;;;;;;16.45;9.73;;;;;;;;;;8260869;28;20459;-69
2021/03/24 13:00:24;;;;;;;15.65;8.80;;;;;;;;;;8260561;28;20079;-68
2021/03/24 13:04:50;;;;;;;30.92;13.93;;;;;;;;;;8262326;28;20459;-69
2021/03/24 13:09:26;;;;;;;16.85;10.68;;;;;;;;;;8261407;28;20463;-69
2021/03/24 13:13:40;;;;;;;17.02;9.68;;;;;;;;;;8260548;28;20472;-69
2021/03/24 13:18:05;;;;;;;16.70;9.82;;;;;;;;;;8261267;28;20460;-69
2021/03/24 13:22:59;;;;;;;16.65;9.70;;;;;;;;;;8262597;28;20048;-69
2021/03/24 13:27:45;;;;;;;81.50;23.90;;;;;;;;;;8257690;28;20462;-69
2021/03/24 13:31:57;;;;;;;55.85;17.55;;;;;;;;;;8258563;28;20462;-69
2021/03/24 13:36:29;;;;;;;33.83;15.15;;;;;;;;;;8259130;28;20456;-71
2021/03/24 13:40:37;;;;;;;148.70;40.08;;;;;;;;;;8257831;28;20444;-69
2021/03/24 13:45:00;;;;;;;31.25;13.40;;;;;;;;;;8256104;28;20468;-69
2021/03/24 13:49:48;;;;;;;25.13;12.27;;;;;;;;;;8225742;28;20371;-69
2021/03/24 13:54:32;;;;;;;48.13;16.02;;;;;;;;;;8256164;28;20380;-69
2021/03/24 13:58:55;;;;;;;17.88;9.35;;;;;;;;;;8256339;28;20084;-70
2021/03/24 14:03:20;;;;;;;21.00;9.75;;;;;;;;;;8257600;28;20372;-69
2021/03/24 14:07:45;;;;;;;31.75;13.60;;;;;;;;;;8258449;28;20411;-69
2021/03/24 14:12:20;;;;;;;24.80;11.52;;;;;;;;;;8256201;28;20515;-69
2021/03/24 14:16:30;;;;;;;77.25;37.30;;;;;;;;;;8258797;28;20379;-69
2021/03/24 14:20:54;;;;;;;20.83;9.70;;;;;;;;;;8255253;28;20368;-70
2021/03/24 14:25:20;;;;;;;15.85;10.15;;;;;;;;;;8255442;28;20468;-71
2021/03/24 14:29:32;;;;;;;24.75;13.60;;;;;;;;;;8258128;28;20448;-69
2021/03/24 14:33:45;;;;;;;20.10;11.63;;;;;;;;;;8257133;28;20341;-69
2021/03/24 14:38:24;;;;;;;19.48;10.45;;;;;;;;;;8257991;28;20347;-69
2021/03/24 14:42:46;;;;;;;31.65;15.07;;;;;;;;;;8256876;28;20468;-70
2021/03/24 14:47:20;;;;;;;187.48;59.63;;;;;;;;;;8257203;28;20360;-69
2021/03/24 14:51:46;;;;;;;344.05;98.70;;;;;;;;;;8260030;28;20380;-69
2021/03/24 14:55:59;;;;;;;25.80;13.70;;;;;;;;;;8262862;28;20365;-69
2021/03/24 15:00:28;;;;;;;235.18;59.35;;;;;;;;;;8265089;28;20486;-68
2021/03/24 15:04:51;;;;;;;47.47;19.55;;;;;;;;;;8263359;28;20459;-69
2021/03/24 15:09:00;;;;;;;39.35;15.38;;;;;;;;;;8245929;28;20083;-68
2021/03/24 15:13:47;;;;;;;20.60;12.55;;;;;;;;;;8263220;28;20394;-69
2021/03/24 15:18:32;;;;;;;28.67;12.50;;;;;;;;;;8261955;28;20384;-69
2021/03/24 15:22:55;;;;;;;22.45;11.98;;;;;;;;;;8262015;28;20352;-69
2021/03/24 15:27:17;;;;;;;30.25;13.60;;;;;;;;;;8263045;28;20477;-68
2021/03/24 15:31:54;;;;;;;16.98;9.90;;;;;;;;;;8261379;28;20356;-69
2021/03/24 15:36:09;;;;;;;49.38;23.35;;;;;;;;;;8260523;28;20490;-68
2021/03/24 15:40:40;;;;;;;31.73;15.73;;;;;;;;;;8260640;28;20057;-68
2021/03/24 15:45:31;;;;;;;34.13;17.02;;;;;;;;;;8260304;28;20406;-68
2021/03/24 15:49:51;;;;;;;24.80;11.95;;;;;;;;;;8261147;28;20371;-72
2021/03/24 15:53:57;;;;;;;58.65;20.40;;;;;;;;;;8263386;28;20370;-69
2021/03/24 15:58:24;;;;;;;44.63;17.38;;;;;;;;;;8259815;28;20341;-69
2021/03/24 16:02:40;;;;;;;27.13;14.32;;;;;;;;;;8259638;28;20495;-68
2021/03/24 16:07:02;;;;;;;23.60;12.13;;;;;;;;;;8259881;28;20383;-69
2021/03/24 16:11:42;;;;;;;27.98;11.05;;;;;;;;;;8260401;28;20383;-68
2021/03/24 16:16:04;;;;;;;25.25;11.32;;;;;;;;;;8260349;28;20079;-69
2021/03/24 16:20:22;;;;;;;28.25;12.07;;;;;;;;;;8261574;28;20368;-69
2021/03/24 16:24:51;;;;;;;31.77;12.95;;;;;;;;;;8259314;28;20476;-68
2021/03/24 16:29:02;;;;;;;28.17;11.00;;;;;;;;;;8260828;28;20482;-69
2021/03/24 16:33:58;;;;;;;28.90;12.55;;;;;;;;;;8257744;28;20353;-68
2021/03/24 16:38:40;;;;;;;24.90;11.35;;;;;;;;;;8259898;28;20435;-68
2021/03/24 16:43:27;;;;;;;36.33;15.77;;;;;;;;;;8260607;28;20371;-68
2021/03/24 16:48:22;;;;;;;29.75;13.45;;;;;;;;;;8260279;28;20071;-68
2021/03/24 16:53:01;;;;;;;37.95;14.80;;;;;;;;;;8261115;28;20568;-68
2021/03/24 16:57:10;;;;;;;53.97;19.63;;;;;;;;;;8257482;28;20353;-68
2021/03/24 17:01:48;;;;;;;72.95;28.08;;;;;;;;;;8261306;28;20325;-70
2021/03/24 17:06:00;;;;;;;110.85;38.58;;;;;;;;;;8262130;28;20330;-69
2021/03/24 17:10:36;;;;;;;159.68;53.67;;;;;;;;;;8258529;28;20479;-68
2021/03/24 17:15:00;;;;;;;215.65;80.85;;;;;;;;;;8257248;28;20491;-69
2021/03/24 17:19:30;;;;;;;87.13;31.52;;;;;;;;;;8260864;28;20387;-68
2021/03/24 17:23:46;;;;;;;100.13;37.63;;;;;;;;;;8243297;28;20463;-68
2021/03/24 17:27:51;;;;;;;106.65;37.72;;;;;;;;;;8258535;28;20494;-68
2021/03/24 17:32:01;;;;;;;82.32;27.30;;;;;;;;;;8260916;28;20380;-69
2021/03/24 17:36:12;;;;;;;60.30;18.30;;;;;;;;;;8257300;28;20418;-68
2021/03/24 17:40:38;;;;;;;36.15;13.07;;;;;;;;;;8257792;28;20468;-68
2021/03/24 17:45:09;;;;;;;27.70;11.18;;;;;;;;;;8258153;28;20341;-69
2021/03/24 17:49:23;;;;;;;28.58;12.18;;;;;;;;;;8261018;28;20510;-69
2021/03/24 17:54:13;;;;;;;32.40;12.57;;;;;;;;;;8256092;28;20056;-69
2021/03/24 17:58:32;;;;;;;32.78;12.93;;;;;;;;;;8256689;28;20511;-69
2021/03/24 18:02:53;;;;;;;47.83;16.35;;;;;;;;;;8257825;28;20056;-69
2021/03/24 18:07:38;;;;;;;;;;;;;;;;;;8258758;28;20049;-68
2021/03/24 18:11:49;;;;;;;70.50;27.73;;;;;;;;;;8257800;28;20328;-70
2021/03/24 18:15:59;;;;;;;56.33;25.48;;;;;;;;;;8255434;28;20049;-71
2021/03/24 18:20:16;;;;;;;55.47;23.60;;;;;;;;;;8254086;28;20479;-71
2021/03/24 18:24:21;;;;;;;116.38;40.67;;;;;;;;;;8255203;28;20383;-71
2021/03/24 18:28:31;;;;;;;116.25;40.85;;;;;;;;;;8255947;28;20080;-71
2021/03/24 18:32:43;;;;;;;163.43;58.20;;;;;;;;;;8255256;28;20475;-72
2021/03/24 18:37:04;;;;;;;115.88;44.38;;;;;;;;;;8258167;28;20443;-73
2021/03/24 18:41:12;;;;;;;119.90;50.17;;;;;;;;;;8257197;28;20337;-71
2021/03/24 18:45:23;;;;;;;99.32;41.00;;;;;;;;;;8255384;28;20372;-71
2021/03/24 18:49:35;;;;;;;102.47;47.58;;;;;;;;;;8256455;28;20364;-71
2021/03/24 18:53:45;;;;;;;91.90;40.95;;;;;;;;;;8272655;28;20456;-71
2021/03/24 18:58:07;;;;;;;66.45;30.48;;;;;;;;;;8254805;28;20057;-71
2021/03/24 19:02:36;;;;;;;88.93;35.00;;;;;;;;;;8256076;28;20494;-71
2021/03/24 19:06:53;;;;;;;118.85;41.25;;;;;;;;;;8254806;28;20464;-71
2021/03/24 19:11:27;;;;;;;162.57;51.85;;;;;;;;;;8255984;28;20383;-71
2021/03/24 19:15:43;;;;;;;142.15;47.00;;;;;;;;;;8257474;28;20461;-72
2021/03/24 19:19:48;;;;;;;96.78;36.90;;;;;;;;;;8255705;28;20371;-72
2021/03/24 19:24:25;;;;;;;106.13;35.70;;;;;;;;;;8254780;28;20475;-71
2021/03/24 19:28:29;;;;;;;115.47;42.38;;;;;;;;;;8255955;28;20088;-70
2021/03/24 19:32:39;;;;;;;120.53;45.47;;;;;;;;;;8256040;28;20045;-71
2021/03/24 19:37:06;;;;;;;119.93;48.60;;;;;;;;;;8255405;28;20459;-70
2021/03/24 19:41:13;;;;;;;128.18;50.80;;;;;;;;;;8262119;28;20383;-71
2021/03/24 19:45:22;;;;;;;140.30;52.28;;;;;;;;;;8261511;28;20053;-71
2021/03/24 19:49:31;;;;;;;133.45;51.03;;;;;;;;;;8262722;28;20065;-71
2021/03/24 19:53:35;;;;;;;131.90;49.10;;;;;;;;;;8263381;28;20520;-72
2021/03/24 19:57:41;;;;;;;131.63;49.15;;;;;;;;;;8262002;28;20391;-70
2021/03/24 20:02:08;;;;;;;111.78;41.05;;;;;;;;;;8277944;28;20072;-71
2021/03/24 20:06:22;;;;;;;149.98;55.50;;;;;;;;;;8261480;28;20484;-71
2021/03/24 20:10:42;;;;;;;171.82;63.10;;;;;;;;;;8261045;28;20067;-70
2021/03/24 20:15:01;;;;;;;162.73;58.88;;;;;;;;;;8260505;28;20487;-71
2021/03/24 20:19:07;;;;;;;155.52;51.22;;;;;;;;;;8260979;28;20353;-70
2021/03/24 20:23:12;;;;;;;116.47;37.45;;;;;;;;;;8260885;28;20364;-71
2021/03/24 20:27:19;;;;;;;75.43;27.42;;;;;;;;;;8259723;28;20048;-70
2021/03/24 20:31:34;;;;;;;82.95;30.20;;;;;;;;;;8259234;28;20506;-71
2021/03/24 20:36:04;;;;;;;160.02;52.38;;;;;;;;;;8259891;28;20467;-70
2021/03/24 20:40:36;;;;;;;140.93;48.50;;;;;;;;;;8259999;28;20363;-70
2021/03/24 20:45:08;;;;;;;174.20;56.72;;;;;;;;;;8259424;28;20484;-70
2021/03/24 20:49:27;;;;;;;170.15;55.20;;;;;;;;;;8261215;28;20383;-71
2021/03/24 20:53:35;;;;;;;163.43;55.10;;;;;;;;;;8261040;28;20049;-70
2021/03/24 20:57:39;;;;;;;131.43;46.35;;;;;;;;;;8261320;28;20500;-70
2021/03/24 21:01:44;;;;;;;103.82;40.65;;;;;;;;;;8259763;28;20360;-70
2021/03/24 21:05:51;;;;;;;81.78;29.65;;;;;;;;;;8258721;28;20075;-71
2021/03/24 21:09:55;;;;;;;46.17;20.65;;;;;;;;;;8243210;28;20373;-71
2021/03/24 21:14:01;;;;;;;50.67;20.48;;;;;;;;;;8259159;28;20383;-70
2021/03/24 21:18:09;;;;;;;53.25;21.80;;;;;;;;;;8257798;28;20065;-70
2021/03/24 21:22:16;;;;;;;56.05;23.45;;;;;;;;;;8262499;28;20416;-71
2021/03/24 21:26:25;;;;;;;65.57;27.38;;;;;;;;;;8260226;28;20049;-70
2021/03/24 21:30:34;;;;;;;72.22;28.02;;;;;;;;;;8258031;28;20501;-71
2021/03/24 21:34:39;;;;;;;85.93;35.55;;;;;;;;;;8259258;28;20476;-69
2021/03/24 21:38:48;;;;;;;76.18;34.35;;;;;;;;;;8261110;28;20460;-70
2021/03/24 21:42:55;;;;;;;94.65;36.72;;;;;;;;;;8259396;28;20456;-70
2021/03/24 21:47:00;;;;;;;129.23;41.08;;;;;;;;;;8258009;28;20415;-71
2021/03/24 21:51:19;;;;;;;161.43;52.70;;;;;;;;;;8259350;28;20441;-70
2021/03/24 21:55:28;;;;;;;152.43;53.05;;;;;;;;;;8257326;28;20045;-71
2021/03/24 21:59:35;;;;;;;141.13;50.28;;;;;;;;;;8257959;28;20484;-70
2021/03/24 22:04:01;;;;;;;142.07;48.83;;;;;;;;;;8258713;28;20053;-70
2021/03/24 22:08:06;;;;;;;178.57;52.88;;;;;;;;;;8242421;28;20365;-71
2021/03/24 22:12:24;;;;;;;150.70;51.23;;;;;;;;;;8258107;28;20369;-70
2021/03/24 22:16:49;;;;;;;161.32;49.30;;;;;;;;;;8256391;28;20512;-71
2021/03/24 22:20:58;;;;;;;155.15;44.78;;;;;;;;;;8257093;28;20045;-70
2021/03/24 22:25:03;;;;;;;187.45;49.10;;;;;;;;;;8241049;28;20376;-71
2021/03/24 22:29:33;;;;;;;166.93;46.65;;;;;;;;;;8255687;28;20057;-70
2021/03/24 22:34:02;;;;;;;;;;;;;;;;;;8256082;28;20483;-70
2021/03/24 22:38:21;;;;;;;182.67;48.23;;;;;;;;;;8273028;28;19925;-70
2021/03/24 22:42:34;;;;;;;177.85;50.92;;;;;;;;;;8256837;28;20475;-70
2021/03/24 22:47:09;;;;;;;164.23;46.20;;;;;;;;;;8257492;28;20452;-70
2021/03/24 22:51:25;;;;;;;121.13;36.47;;;;;;;;;;8256581;28;20440;-70
2021/03/24 22:55:55;;;;;;;118.05;36.55;;;;;;;;;;8257729;28;20053;-70
2021/03/24 23:00:00;;;;;;;319.45;82.78;;;;;;;;;;8256058;28;20348;-69
2021/03/24 23:04:38;;;;;;;117.47;37.83;;;;;;;;;;8256835;28;20060;-70
2021/03/24 23:08:45;;;;;;;111.32;34.28;;;;;;;;;;8259508;28;20370;-71
2021/03/24 23:13:07;;;;;;;109.88;33.28;;;;;;;;;;8261997;28;20470;-70
2021/03/24 23:17:28;;;;;;;107.97;34.55;;;;;;;;;;8261970;28;20394;-70
2021/03/24 23:21:36;;;;;;;129.02;37.80;;;;;;;;;;8261783;28;20486;-70
2021/03/24 23:25:41;;;;;;;107.78;35.15;;;;;;;;;;8261727;28;20460;-71
2021/03/24 23:29:48;;;;;;;98.80;33.17;;;;;;;;;;8263823;28;20067;-69
2021/03/24 23:33:53;;;;;;;83.30;27.50;;;;;;;;;;8262364;28;20491;-69
2021/03/24 23:38:00;;;;;;;89.18;29.95;;;;;;;;;;8260659;28;20052;-70
2021/03/24 23:42:05;;;;;;;79.18;30.38;;;;;;;;;;8262114;28;20057;-70
2021/03/24 23:46:09;;;;;;;86.95;30.77;;;;;;;;;;8261511;28;20371;-71
2021/03/24 23:50:29;;;;;;;82.47;33.08;;;;;;;;;;8263636;28;20471;-70
2021/03/24 23:54:33;;;;;;;97.00;36.15;;;;;;;;;;8260791;28;20468;-69
2021/03/24 23:58:42;;;;;;;94.78;34.03;;;;;;;;;;8261704;28;20497;-71
